createdAt,value
2018-10-19T00:00:33.985Z,1000.47
2018-10-19T00:01:34.013Z,1000.48
2018-10-19T00:02:34.043Z,1000.47
2018-10-19T00:03:34.074Z,1000.43
2018-10-19T00:04:34.103Z,1000.49
2018-10-19T00:05:34.133Z,1000.46
2018-10-19T00:06:34.163Z,1000.45
2018-10-19T00:07:34.193Z,1000.38
2018-10-19T00:08:36.577Z,1000.38
2018-10-19T00:09:34.252Z,1000.41
2018-10-19T00:10:34.282Z,1000.37
2018-10-19T00:11:34.313Z,1000.33
2018-10-19T00:12:34.343Z,1000.31
2018-10-19T00:13:34.373Z,1000.33
2018-10-19T00:14:34.402Z,1000.35
2018-10-19T00:15:34.430Z,1000.30
2018-10-19T00:16:34.458Z,1000.34
2018-10-19T00:17:34.489Z,1000.29
2018-10-19T00:18:34.518Z,1000.30
2018-10-19T00:19:34.547Z,1000.34
2018-10-19T00:20:34.577Z,1000.28
2018-10-19T00:21:34.608Z,1000.30
2018-10-19T00:22:34.636Z,1000.36
2018-10-19T00:23:34.676Z,1000.33
2018-10-19T00:24:34.695Z,1000.38
2018-10-19T00:25:34.726Z,1000.36
2018-10-19T00:26:34.755Z,1000.31
2018-10-19T00:27:34.784Z,1000.30
2018-10-19T00:28:34.813Z,1000.36
2018-10-19T00:29:34.843Z,1000.36
2018-10-19T00:30:34.872Z,1000.36
2018-10-19T00:31:34.903Z,1000.37
2018-10-19T00:32:34.933Z,1000.34
2018-10-19T00:33:34.963Z,1000.35
2018-10-19T00:34:34.996Z,1000.40
2018-10-19T00:35:35.021Z,1000.36
2018-10-19T00:36:35.073Z,1000.39
2018-10-19T00:37:35.079Z,1000.41
2018-10-19T00:38:35.108Z,1000.39
2018-10-19T00:39:35.140Z,1000.45
2018-10-19T00:40:35.168Z,1000.43
2018-10-19T00:41:35.196Z,1000.39
2018-10-19T00:42:35.226Z,1000.43
2018-10-19T00:43:35.255Z,1000.44
2018-10-19T00:44:35.290Z,1000.40
2018-10-19T00:45:35.315Z,1000.37
2018-10-19T00:46:35.344Z,1000.38
2018-10-19T00:47:35.373Z,1000.39
2018-10-19T00:48:35.404Z,1000.39
2018-10-19T00:49:35.432Z,1000.43
2018-10-19T00:50:35.461Z,1000.40
2018-10-19T00:51:35.491Z,1000.44
2018-10-19T00:52:35.521Z,1000.41
2018-10-19T00:53:35.551Z,1000.42
2018-10-19T00:54:35.580Z,1000.44
2018-10-19T00:55:35.609Z,1000.45
2018-10-19T00:56:35.639Z,1000.45
2018-10-19T00:57:35.668Z,1000.42
2018-10-19T00:58:35.696Z,1000.47
2018-10-19T00:59:35.726Z,1000.44
2018-10-19T01:00:35.757Z,1000.45
2018-10-19T01:01:35.786Z,1000.46
2018-10-19T01:02:35.816Z,1000.47
2018-10-19T01:03:35.843Z,1000.46
2018-10-19T01:04:35.873Z,1000.48
2018-10-19T01:05:35.904Z,1000.45
2018-10-19T01:06:35.931Z,1000.39
2018-10-19T01:07:35.963Z,1000.42
2018-10-19T01:08:35.993Z,1000.38
2018-10-19T01:09:36.021Z,1000.35
2018-10-19T01:10:36.049Z,1000.32
2018-10-19T01:11:36.078Z,1000.29
2018-10-19T01:12:36.109Z,1000.34
2018-10-19T01:13:36.138Z,1000.34
2018-10-19T01:14:36.167Z,1000.32
2018-10-19T01:15:36.196Z,1000.27
2018-10-19T01:16:36.226Z,1000.25
2018-10-19T01:17:36.256Z,1000.27
2018-10-19T01:18:36.284Z,1000.21
2018-10-19T01:19:36.313Z,1000.30
2018-10-19T01:20:36.343Z,1000.30
2018-10-19T01:21:36.372Z,1000.29
2018-10-19T01:22:36.406Z,1000.30
2018-10-19T01:23:36.432Z,1000.30
2018-10-19T01:24:36.460Z,1000.25
2018-10-19T01:25:36.489Z,1000.27
2018-10-19T01:26:36.518Z,1000.25
2018-10-19T01:27:36.552Z,1000.22
2018-10-19T01:28:36.576Z,1000.25
2018-10-19T01:29:36.606Z,1000.21
2018-10-19T01:30:36.637Z,1000.24
2018-10-19T01:31:36.665Z,1000.28
2018-10-19T01:32:36.694Z,1000.27
2018-10-19T01:33:36.723Z,1000.28
2018-10-19T01:34:36.753Z,1000.30
2018-10-19T01:35:36.781Z,1000.34
2018-10-19T01:36:36.811Z,1000.34
2018-10-19T01:37:36.839Z,1000.30
2018-10-19T01:38:36.869Z,1000.36
2018-10-19T01:39:36.898Z,1000.32
2018-10-19T01:40:36.928Z,1000.36
2018-10-19T01:41:36.956Z,1000.34
2018-10-19T01:42:36.985Z,1000.28
2018-10-19T01:43:37.015Z,1000.30
2018-10-19T01:44:37.044Z,1000.34
2018-10-19T01:45:37.074Z,1000.36
2018-10-19T01:46:37.104Z,1000.32
2018-10-19T01:47:37.133Z,1000.36
2018-10-19T01:48:37.161Z,1000.33
2018-10-19T01:49:37.191Z,1000.35
2018-10-19T01:50:37.219Z,1000.38
2018-10-19T01:51:37.248Z,1000.39
2018-10-19T01:52:37.303Z,1000.44
2018-10-19T01:53:37.308Z,1000.43
2018-10-19T01:54:37.336Z,1000.43
2018-10-19T01:55:37.365Z,1000.39
2018-10-19T01:56:37.395Z,1000.47
2018-10-19T01:57:37.431Z,1000.44
2018-10-19T01:58:37.452Z,1000.48
2018-10-19T01:59:37.482Z,1000.49
2018-10-19T02:00:37.512Z,1000.50
2018-10-19T02:01:37.542Z,1000.52
2018-10-19T02:02:37.571Z,1000.51
2018-10-19T02:03:37.602Z,1000.47
2018-10-19T02:04:37.628Z,1000.48
2018-10-19T02:05:37.657Z,1000.43
2018-10-19T02:06:37.686Z,1000.41
2018-10-19T02:07:37.715Z,1000.41
2018-10-19T02:08:37.744Z,1000.43
2018-10-19T02:09:37.778Z,1000.38
2018-10-19T02:10:37.802Z,1000.39
2018-10-19T02:11:37.833Z,1000.38
2018-10-19T02:12:37.860Z,1000.36
2018-10-19T02:13:37.891Z,1000.37
2018-10-19T02:14:37.919Z,1000.39
2018-10-19T02:15:37.947Z,1000.38
2018-10-19T02:16:37.977Z,1000.38
2018-10-19T02:17:38.008Z,1000.38
2018-10-19T02:18:38.035Z,1000.38
2018-10-19T02:19:38.064Z,1000.39
2018-10-19T02:20:38.096Z,1000.39
2018-10-19T02:21:38.123Z,1000.42
2018-10-19T02:22:38.155Z,1000.36
2018-10-19T02:23:38.182Z,1000.38
2018-10-19T02:24:38.224Z,1000.37
2018-10-19T02:25:38.238Z,1000.36
2018-10-19T02:26:38.268Z,1000.34
2018-10-19T02:27:38.298Z,1000.39
2018-10-19T02:28:38.329Z,1000.32
2018-10-19T02:29:38.355Z,1000.38
2018-10-19T02:30:38.383Z,1000.39
2018-10-19T02:31:38.412Z,1000.35
2018-10-19T02:32:38.443Z,1000.35
2018-10-19T02:33:38.471Z,1000.35
2018-10-19T02:34:38.498Z,1000.34
2018-10-19T02:35:38.529Z,1000.39
2018-10-19T02:36:38.557Z,1000.42
2018-10-19T02:37:38.588Z,1000.37
2018-10-19T02:38:38.616Z,1000.34
2018-10-19T02:39:38.643Z,1000.35
2018-10-19T02:40:38.672Z,1000.33
2018-10-19T02:41:38.702Z,1000.35
2018-10-19T02:42:38.731Z,1000.30
2018-10-19T02:43:38.760Z,1000.35
2018-10-19T02:44:38.787Z,1000.31
2018-10-19T02:45:38.817Z,1000.32
2018-10-19T02:46:38.847Z,1000.30
2018-10-19T02:47:38.874Z,1000.32
2018-10-19T02:48:38.904Z,1000.33
2018-10-19T02:49:38.932Z,1000.31
2018-10-19T02:50:38.962Z,1000.32
2018-10-19T02:51:38.989Z,1000.35
2018-10-19T02:52:39.019Z,1000.30
2018-10-19T02:53:39.053Z,1000.35
2018-10-19T02:54:39.076Z,1000.35
2018-10-19T02:55:39.107Z,1000.34
2018-10-19T02:56:39.138Z,1000.35
2018-10-19T02:57:39.165Z,1000.35
2018-10-19T02:58:39.192Z,1000.36
2018-10-19T02:59:39.222Z,1000.34
2018-10-19T03:00:39.249Z,1000.34
2018-10-19T03:01:39.280Z,1000.35
2018-10-19T03:02:39.311Z,1000.33
2018-10-19T03:03:39.341Z,1000.33
2018-10-19T03:04:39.366Z,1000.35
2018-10-19T03:05:39.397Z,1000.35
2018-10-19T03:06:39.424Z,1000.33
2018-10-19T03:07:39.451Z,1000.35
2018-10-19T03:08:39.481Z,1000.35
2018-10-19T03:09:39.516Z,1000.33
2018-10-19T03:10:39.543Z,1000.34
2018-10-19T03:11:39.662Z,1000.38
2018-10-19T03:12:39.595Z,1000.38
2018-10-19T03:13:39.626Z,1000.38
2018-10-19T03:14:39.654Z,1000.34
2018-10-19T03:15:39.683Z,1000.31
2018-10-19T03:16:39.712Z,1000.33
2018-10-19T03:17:39.739Z,1000.35
2018-10-19T03:18:39.768Z,1000.34
2018-10-19T03:19:39.798Z,1000.37
2018-10-19T03:20:39.833Z,1000.36
2018-10-19T03:21:39.858Z,1000.37
2018-10-19T03:22:39.885Z,1000.36
2018-10-19T03:23:39.911Z,1000.34
2018-10-19T03:24:39.942Z,1000.35
2018-10-19T03:25:39.972Z,1000.32
2018-10-19T03:26:40.004Z,1000.30
2018-10-19T03:27:40.028Z,1000.29
2018-10-19T03:28:40.056Z,1000.30
2018-10-19T03:29:40.095Z,1000.26
2018-10-19T03:30:40.181Z,1000.30
2018-10-19T03:31:40.143Z,1000.29
2018-10-19T03:32:40.177Z,1000.29
2018-10-19T03:33:40.200Z,1000.29
2018-10-19T03:34:40.229Z,1000.27
2018-10-19T03:35:40.258Z,1000.32
2018-10-19T03:36:40.286Z,1000.30
2018-10-19T03:37:40.315Z,1000.30
2018-10-19T03:38:40.344Z,1000.29
2018-10-19T03:39:40.373Z,1000.30
2018-10-19T03:40:40.400Z,1000.30
2018-10-19T03:41:40.429Z,1000.33
2018-10-19T03:42:40.457Z,1000.31
2018-10-19T03:43:40.488Z,1000.33
2018-10-19T03:44:40.516Z,1000.33
2018-10-19T03:45:40.553Z,1000.32
2018-10-19T03:46:40.574Z,1000.27
2018-10-19T03:47:40.601Z,1000.31
2018-10-19T03:48:40.630Z,1000.36
2018-10-19T03:49:40.661Z,1000.36
2018-10-19T03:50:40.687Z,1000.40
2018-10-19T03:51:40.717Z,1000.35
2018-10-19T03:52:40.748Z,1000.34
2018-10-19T03:53:40.774Z,1000.35
2018-10-19T03:54:40.802Z,1000.38
2018-10-19T03:55:40.831Z,1000.41
2018-10-19T03:56:40.860Z,1000.40
2018-10-19T03:57:40.890Z,1000.44
2018-10-19T03:58:40.919Z,1000.45
2018-10-19T03:59:40.946Z,1000.43
2018-10-19T04:00:40.974Z,1000.44
2018-10-19T04:01:41.007Z,1000.48
2018-10-19T04:02:41.036Z,1000.46
2018-10-19T04:03:41.153Z,1000.46
2018-10-19T04:04:41.091Z,1000.47
2018-10-19T04:05:41.119Z,1000.48
2018-10-19T04:06:41.147Z,1000.46
2018-10-19T04:07:41.177Z,1000.49
2018-10-19T04:08:41.205Z,1000.51
2018-10-19T04:09:41.234Z,1000.50
2018-10-19T04:10:41.266Z,1000.47
2018-10-19T04:11:41.294Z,1000.48
2018-10-19T04:12:41.317Z,1000.47
2018-10-19T04:13:41.347Z,1000.47
2018-10-19T04:14:41.375Z,1000.49
2018-10-19T04:15:41.405Z,1000.43
2018-10-19T04:16:41.433Z,1000.47
2018-10-19T04:17:41.462Z,1000.46
2018-10-19T04:18:41.492Z,1000.46
2018-10-19T04:19:41.519Z,1000.47
2018-10-19T04:20:41.547Z,1000.46
2018-10-19T04:21:41.576Z,1000.47
2018-10-19T04:22:41.604Z,1000.45
2018-10-19T04:23:41.633Z,1000.51
2018-10-19T04:24:41.660Z,1000.51
2018-10-19T04:25:41.692Z,1000.50
2018-10-19T04:26:41.719Z,1000.50
2018-10-19T04:27:41.833Z,1000.51
2018-10-19T04:28:41.777Z,1000.48
2018-10-19T04:29:41.805Z,1000.50
2018-10-19T04:30:41.832Z,1000.48
2018-10-19T04:31:41.911Z,1000.48
2018-10-19T04:32:41.905Z,1000.51
2018-10-19T04:33:41.919Z,1000.49
2018-10-19T04:34:41.947Z,1000.53
2018-10-19T04:35:41.974Z,1000.50
2018-10-19T04:36:42.003Z,1000.58
2018-10-19T04:37:42.031Z,1000.56
2018-10-19T04:38:42.061Z,1000.53
2018-10-19T04:39:42.089Z,1000.55
2018-10-19T04:40:42.118Z,1000.56
2018-10-19T04:41:42.265Z,1000.49
2018-10-19T04:42:42.174Z,1000.50
2018-10-19T04:43:42.202Z,1000.51
2018-10-19T04:44:42.231Z,1000.52
2018-10-19T04:45:42.260Z,1000.50
2018-10-19T04:46:42.286Z,1000.56
2018-10-19T04:47:42.332Z,1000.53
2018-10-19T04:48:42.345Z,1000.57
2018-10-19T04:49:42.373Z,1000.61
2018-10-19T04:50:42.400Z,1000.61
2018-10-19T04:51:42.430Z,1000.62
2018-10-19T04:52:42.458Z,1000.61
2018-10-19T04:53:42.561Z,1000.65
2018-10-19T04:54:42.520Z,1000.62
2018-10-19T04:55:42.542Z,1000.66
2018-10-19T04:56:42.572Z,1000.69
2018-10-19T04:57:42.601Z,1000.67
2018-10-19T04:58:42.627Z,1000.70
2018-10-19T04:59:42.656Z,1000.74
2018-10-19T05:00:42.687Z,1000.71
2018-10-19T05:01:42.715Z,1000.74
2018-10-19T05:02:42.989Z,1000.72
2018-10-19T05:03:42.770Z,1000.76
2018-10-19T05:04:42.933Z,1000.75
2018-10-19T05:05:42.860Z,1000.80
2018-10-19T05:06:42.934Z,1000.79
2018-10-19T05:07:42.884Z,1000.80
2018-10-19T05:08:42.913Z,1000.78
2018-10-19T05:09:42.941Z,1000.79
2018-10-19T05:10:42.967Z,1000.79
2018-10-19T05:11:42.997Z,1000.77
2018-10-19T05:12:43.071Z,1000.78
2018-10-19T05:13:43.054Z,1000.84
2018-10-19T05:14:43.082Z,1000.78
2018-10-19T05:15:43.110Z,1000.82
2018-10-19T05:16:43.138Z,1000.85
2018-10-19T05:17:43.168Z,1000.85
2018-10-19T05:18:43.195Z,1000.85
2018-10-19T05:19:43.223Z,1000.83
2018-10-19T05:20:43.252Z,1000.84
2018-10-19T05:21:43.281Z,1000.86
2018-10-19T05:22:43.307Z,1000.90
2018-10-19T05:23:43.342Z,1000.87
2018-10-19T05:24:43.388Z,1000.91
2018-10-19T05:25:43.393Z,1000.92
2018-10-19T05:26:43.420Z,1000.89
2018-10-19T05:27:43.451Z,1000.97
2018-10-19T05:28:43.478Z,1000.94
2018-10-19T05:29:43.507Z,1000.97
2018-10-19T05:30:43.544Z,1000.96
2018-10-19T05:31:43.564Z,1000.92
2018-10-19T05:32:43.601Z,1000.96
2018-10-19T05:33:43.621Z,1000.97
2018-10-19T05:34:43.655Z,1000.96
2018-10-19T05:35:43.676Z,1000.90
2018-10-19T05:36:43.706Z,1000.95
2018-10-19T05:37:43.734Z,1000.97
2018-10-19T05:38:43.763Z,1000.95
2018-10-19T05:39:43.790Z,1001.00
2018-10-19T05:40:43.818Z,1001.01
2018-10-19T05:41:43.848Z,1001.00
2018-10-19T05:42:43.876Z,1001.00
2018-10-19T05:43:43.970Z,1001.02
2018-10-19T05:44:43.934Z,1001.02
2018-10-19T05:45:43.961Z,1001.07
2018-10-19T05:46:43.990Z,1001.02
2018-10-19T05:47:44.018Z,1001.05
2018-10-19T05:48:44.046Z,1001.06
2018-10-19T05:49:44.075Z,1001.10
2018-10-19T05:50:44.102Z,1001.10
2018-10-19T05:51:44.132Z,1001.14
2018-10-19T05:52:44.161Z,1001.14
2018-10-19T05:53:44.190Z,1001.14
2018-10-19T05:54:44.216Z,1001.13
2018-10-19T05:55:44.244Z,1001.13
2018-10-19T05:56:44.274Z,1001.18
2018-10-19T05:57:44.303Z,1001.22
2018-10-19T05:58:44.331Z,1001.22
2018-10-19T05:59:44.359Z,1001.26
2018-10-19T06:00:44.388Z,1001.27
2018-10-19T06:01:44.417Z,1001.28
2018-10-19T06:02:44.512Z,1001.30
2018-10-19T06:03:44.473Z,1001.33
2018-10-19T06:04:44.503Z,1001.32
2018-10-19T06:05:44.531Z,1001.32
2018-10-19T06:06:44.560Z,1001.30
2018-10-19T06:07:44.588Z,1001.31
2018-10-19T06:08:44.618Z,1001.30
2018-10-19T06:09:44.645Z,1001.27
2018-10-19T06:10:44.673Z,1001.28
2018-10-19T06:11:44.702Z,1001.32
2018-10-19T06:12:44.733Z,1001.35
2018-10-19T06:13:44.861Z,1001.31
2018-10-19T06:14:44.790Z,1001.33
2018-10-19T06:15:44.822Z,1001.35
2018-10-19T06:16:44.847Z,1001.39
2018-10-19T06:17:44.875Z,1001.38
2018-10-19T06:18:44.923Z,1001.37
2018-10-19T06:19:44.947Z,1001.40
2018-10-19T06:20:44.975Z,1001.39
2018-10-19T06:21:44.990Z,1001.41
2018-10-19T06:22:45.019Z,1001.42
2018-10-19T06:23:45.046Z,1001.43
2018-10-19T06:24:45.076Z,1001.43
2018-10-19T06:25:45.171Z,1001.48
2018-10-19T06:26:45.132Z,1001.51
2018-10-19T06:27:45.162Z,1001.54
2018-10-19T06:28:45.192Z,1001.55
2018-10-19T06:29:45.223Z,1001.56
2018-10-19T06:30:45.247Z,1001.61
2018-10-19T06:31:45.275Z,1001.59
2018-10-19T06:32:45.309Z,1001.61
2018-10-19T06:33:45.367Z,1001.62
2018-10-19T06:34:45.361Z,1001.64
2018-10-19T06:35:45.390Z,1001.65
2018-10-19T06:36:45.420Z,1001.68
2018-10-19T06:37:45.450Z,1001.72
2018-10-19T06:38:45.479Z,1001.76
2018-10-19T06:39:45.510Z,1001.75
2018-10-19T06:40:45.616Z,1001.77
2018-10-19T06:41:45.591Z,1001.79
2018-10-19T06:42:45.614Z,1001.80
2018-10-19T06:43:45.623Z,1001.82
2018-10-19T06:44:45.655Z,1001.84
2018-10-19T06:45:45.682Z,1001.83
2018-10-19T06:46:45.785Z,1001.89
2018-10-19T06:47:45.738Z,1001.88
2018-10-19T06:48:45.768Z,1001.86
2018-10-19T06:49:45.805Z,1001.94
2018-10-19T06:50:45.825Z,1001.94
2018-10-19T06:51:45.857Z,1001.96
2018-10-19T06:52:45.885Z,1001.94
2018-10-19T06:53:45.915Z,1001.96
2018-10-19T06:54:45.943Z,1001.98
2018-10-19T06:55:45.972Z,1002.01
2018-10-19T06:56:46.005Z,1001.99
2018-10-19T06:57:46.034Z,1001.91
2018-10-19T06:58:46.066Z,1001.96
2018-10-19T06:59:46.090Z,1001.93
2018-10-19T07:00:46.122Z,1001.98
2018-10-19T07:01:46.150Z,1001.96
2018-10-19T07:02:46.180Z,1001.99
2018-10-19T07:03:46.208Z,1001.97
2018-10-19T07:04:46.240Z,1001.98
2018-10-19T07:05:46.330Z,1002.01
2018-10-19T07:06:46.297Z,1002.00
2018-10-19T07:07:46.382Z,1001.98
2018-10-19T07:08:46.359Z,1001.99
2018-10-19T07:09:46.387Z,1002.03
2018-10-19T07:10:46.417Z,1002.02
2018-10-19T07:11:46.460Z,1002.03
2018-10-19T07:12:46.480Z,1002.05
2018-10-19T07:13:46.507Z,1002.01
2018-10-19T07:14:46.578Z,1002.07
2018-10-19T07:15:46.594Z,1002.10
2018-10-19T07:17:46.626Z,1002.13
2018-10-19T07:18:46.674Z,1002.15
2018-10-19T07:19:46.684Z,1002.16
2018-10-19T07:20:46.714Z,1002.18
2018-10-19T07:21:46.813Z,1002.19
2018-10-19T07:22:46.776Z,1002.22
2018-10-19T07:23:46.805Z,1002.22
2018-10-19T07:24:46.836Z,1002.19
2018-10-19T07:25:46.866Z,1002.23
2018-10-19T07:26:46.896Z,1002.25
2018-10-19T07:27:46.926Z,1002.22
2018-10-19T07:28:46.957Z,1002.26
2018-10-19T07:29:46.986Z,1002.26
2018-10-19T07:30:47.015Z,1002.25
2018-10-19T07:31:47.048Z,1002.26
2018-10-19T07:32:47.078Z,1002.29
2018-10-19T07:33:47.107Z,1002.30
2018-10-19T07:34:47.142Z,1002.28
2018-10-19T07:35:47.168Z,1002.31
2018-10-19T07:36:47.210Z,1002.34
2018-10-19T07:37:47.230Z,1002.32
2018-10-19T07:38:47.260Z,1002.36
2018-10-19T07:39:47.290Z,1002.37
2018-10-19T07:40:47.330Z,1002.34
2018-10-19T07:41:47.358Z,1002.41
2018-10-19T07:42:47.382Z,1002.45
2018-10-19T07:43:47.413Z,1002.40
2018-10-19T07:44:47.445Z,1002.35
2018-10-19T07:45:47.476Z,1002.38
2018-10-19T07:46:47.507Z,1002.35
2018-10-19T07:47:47.664Z,1002.31
2018-10-19T07:48:47.567Z,1002.32
2018-10-19T07:49:47.599Z,1002.32
2018-10-19T07:50:47.635Z,1002.30
2018-10-19T07:51:47.660Z,1002.29
2018-10-19T07:52:47.694Z,1002.38
2018-10-19T07:53:47.723Z,1002.41
2018-10-19T07:54:47.755Z,1002.44
2018-10-19T07:55:47.787Z,1002.43
2018-10-19T07:56:47.817Z,1002.40
2018-10-19T07:57:47.851Z,1002.41
2018-10-19T07:58:47.880Z,1002.37
2018-10-19T07:59:47.916Z,1002.41
2018-10-19T08:00:47.995Z,1002.35
2018-10-19T08:01:47.979Z,1002.40
2018-10-19T08:02:48.004Z,1002.41
2018-10-19T08:03:48.035Z,1002.46
2018-10-19T08:04:48.067Z,1002.41
2018-10-19T08:05:48.099Z,1002.47
2018-10-19T08:06:48.129Z,1002.42
2018-10-19T08:07:48.161Z,1002.49
2018-10-19T08:08:48.193Z,1002.53
2018-10-19T08:09:48.224Z,1002.51
2018-10-19T08:10:48.255Z,1002.49
2018-10-19T08:11:48.285Z,1002.47
2018-10-19T08:12:48.319Z,1002.46
2018-10-19T08:13:48.350Z,1002.44
2018-10-19T08:14:48.383Z,1002.46
2018-10-19T08:15:48.413Z,1002.46
2018-10-19T08:16:48.444Z,1002.53
2018-10-19T08:17:48.479Z,1002.78
2018-10-19T08:18:48.508Z,1002.64
2018-10-19T08:19:48.541Z,1002.72
2018-10-19T08:20:48.572Z,1002.70
2018-10-19T08:21:48.606Z,1002.66
2018-10-19T08:22:48.636Z,1002.60
2018-10-19T08:23:48.671Z,1002.67
2018-10-19T08:24:48.704Z,1002.61
2018-10-19T08:25:48.739Z,1002.63
2018-10-19T08:26:48.771Z,1002.68
2018-10-19T08:27:48.802Z,1002.50
2018-10-19T08:28:48.835Z,1002.40
2018-10-19T08:29:48.869Z,1002.58
2018-10-19T08:30:48.931Z,1002.78
2018-10-19T08:31:48.937Z,1002.79
2018-10-19T08:32:48.971Z,1002.80
2018-10-19T08:33:49.005Z,1002.91
2018-10-19T08:34:49.038Z,1002.88
2018-10-19T08:35:49.072Z,1002.89
2018-10-19T08:36:49.108Z,1002.87
2018-10-19T08:37:49.141Z,1002.91
2018-10-19T08:38:49.175Z,1002.89
2018-10-19T08:39:49.210Z,1002.91
2018-10-19T08:40:49.273Z,1002.86
2018-10-19T08:41:49.453Z,1002.97
2018-10-19T08:42:49.315Z,1002.89
2018-10-19T08:43:49.351Z,1002.92
2018-10-19T08:44:49.389Z,1002.91
2018-10-19T08:45:49.422Z,1002.74
2018-10-19T08:46:49.458Z,1002.71
2018-10-19T08:47:49.527Z,1002.83
2018-10-19T08:48:49.530Z,1002.80
2018-10-19T08:49:49.566Z,1003.04
2018-10-19T08:50:49.601Z,1003.04
2018-10-19T08:51:49.638Z,1003.05
2018-10-19T08:52:49.679Z,1003.03
2018-10-19T08:53:49.727Z,1002.99
2018-10-19T08:54:49.848Z,1002.99
2018-10-19T08:55:49.784Z,1003.06
2018-10-19T08:56:49.821Z,1003.02
2018-10-19T08:57:49.976Z,1003.04
2018-10-19T08:58:49.895Z,1003.05
2018-10-19T08:59:49.932Z,1003.02
2018-10-19T09:00:49.969Z,1003.03
2018-10-19T09:01:50.007Z,1003.05
2018-10-19T09:02:50.043Z,1003.09
2018-10-19T09:03:50.082Z,1003.10
2018-10-19T09:04:50.121Z,1003.07
2018-10-19T09:05:50.158Z,1003.07
2018-10-19T09:06:50.195Z,1003.06
2018-10-19T09:07:50.233Z,1003.09
2018-10-19T09:08:50.275Z,1003.07
2018-10-19T09:09:50.312Z,1003.07
2018-10-19T09:10:50.456Z,1003.08
2018-10-19T09:11:50.469Z,1003.09
2018-10-19T09:12:50.547Z,1003.11
2018-10-19T09:14:50.504Z,1003.06
2018-10-19T09:15:50.545Z,1003.13
2018-10-19T09:16:50.584Z,1003.13
2018-10-19T09:17:50.625Z,1003.11
2018-10-19T09:18:50.663Z,1003.09
2018-10-19T09:19:50.702Z,1003.14
2018-10-19T09:20:50.743Z,1003.13
2018-10-19T09:21:50.785Z,1003.13
2018-10-19T09:22:50.824Z,1003.13
2018-10-19T09:23:50.861Z,1003.14
2018-10-19T09:24:50.906Z,1003.10
2018-10-19T09:25:50.940Z,1003.11
2018-10-19T09:26:50.982Z,1003.12
2018-10-19T09:27:51.021Z,1003.18
2018-10-19T09:28:51.062Z,1003.18
2018-10-19T09:29:51.100Z,1003.15
2018-10-19T09:30:51.142Z,1003.15
2018-10-19T09:31:51.180Z,1003.15
2018-10-19T09:32:51.221Z,1003.17
2018-10-19T09:33:51.262Z,1003.20
2018-10-19T09:34:51.301Z,1003.20
2018-10-19T09:35:51.372Z,1003.23
2018-10-19T09:36:51.524Z,1003.22
2018-10-19T09:37:51.425Z,1003.24
2018-10-19T09:38:51.464Z,1003.21
2018-10-19T09:39:51.503Z,1003.16
2018-10-19T09:40:51.582Z,1003.24
2018-10-19T09:41:51.612Z,1003.22
2018-10-19T09:42:51.626Z,1003.27
2018-10-19T09:43:51.666Z,1003.25
2018-10-19T09:44:51.707Z,1003.26
2018-10-19T09:45:51.748Z,1003.22
2018-10-19T09:46:51.789Z,1003.22
2018-10-19T09:47:51.880Z,1003.28
2018-10-19T09:48:51.871Z,1003.17
2018-10-19T09:49:51.913Z,1003.20
2018-10-19T09:50:52.184Z,1003.20
2018-10-19T09:51:52.216Z,1003.21
2018-10-19T09:52:52.060Z,1003.22
2018-10-19T09:53:52.300Z,1003.17
2018-10-19T09:54:52.116Z,1003.17
2018-10-19T09:55:52.155Z,1003.20
2018-10-19T09:56:52.220Z,1003.16
2018-10-19T09:57:52.240Z,1003.13
2018-10-19T09:58:52.315Z,1003.18
2018-10-19T10:02:52.488Z,1003.24
2018-10-19T10:03:52.486Z,1003.25
2018-10-19T10:04:52.578Z,1003.25
2018-10-19T10:05:52.566Z,1003.28
2018-10-19T10:06:52.657Z,1003.31
2018-10-19T10:07:52.724Z,1003.34
2018-10-19T10:08:52.700Z,1003.26
2018-10-19T10:09:52.731Z,1003.30
2018-10-19T10:10:52.775Z,1003.33
2018-10-19T10:11:52.813Z,1003.40
2018-10-19T10:12:52.858Z,1003.39
2018-10-19T10:13:52.898Z,1003.36
2018-10-19T10:14:53.023Z,1003.33
2018-10-19T10:15:53.035Z,1003.36
2018-10-19T10:16:53.023Z,1003.44
2018-10-19T10:17:53.063Z,1003.39
2018-10-19T10:18:53.108Z,1003.41
2018-10-19T10:19:53.146Z,1003.42
2018-10-19T10:20:53.187Z,1003.41
2018-10-19T10:21:53.254Z,1003.45
2018-10-19T10:22:53.270Z,1003.49
2018-10-19T10:23:53.312Z,1003.58
2018-10-19T10:24:53.399Z,1003.55
2018-10-19T10:25:53.395Z,1003.46
2018-10-19T10:26:53.435Z,1003.41
2018-10-19T10:27:53.485Z,1003.57
2018-10-19T10:28:53.519Z,1003.51
2018-10-19T10:29:53.561Z,1003.41
2018-10-19T10:30:53.631Z,1003.55
2018-10-19T10:31:53.663Z,1003.58
2018-10-19T10:32:53.685Z,1003.55
2018-10-19T10:33:53.752Z,1003.65
2018-10-19T10:34:53.767Z,1003.34
2018-10-19T10:35:53.810Z,1003.53
2018-10-19T10:36:53.886Z,1003.56
2018-10-19T10:37:53.892Z,1003.65
2018-10-19T10:38:54.023Z,1003.59
2018-10-19T10:39:53.980Z,1003.57
2018-10-19T10:40:54.016Z,1003.56
2018-10-19T10:41:54.059Z,1003.46
2018-10-19T10:42:54.100Z,1003.45
2018-10-19T10:43:54.140Z,1003.51
2018-10-19T10:44:54.184Z,1003.50
2018-10-19T10:45:54.289Z,1003.59
2018-10-19T10:46:54.278Z,1003.50
2018-10-19T10:47:54.306Z,1003.48
2018-10-19T10:48:54.354Z,1003.52
2018-10-19T10:49:54.391Z,1003.49
2018-10-19T10:50:54.432Z,1003.54
2018-10-19T10:51:54.502Z,1003.53
2018-10-19T10:52:54.522Z,1003.55
2018-10-19T10:53:54.560Z,1003.52
2018-10-19T10:54:54.634Z,1003.47
2018-10-19T10:55:54.975Z,1003.45
2018-10-19T10:56:54.687Z,1003.49
2018-10-19T10:57:54.736Z,1003.51
2018-10-19T10:58:54.771Z,1003.44
2018-10-19T10:59:54.814Z,1003.39
2018-10-19T11:00:54.877Z,1003.43
2018-10-19T11:02:54.941Z,1003.34
2018-10-19T11:03:55.014Z,1003.34
2018-10-19T11:04:55.027Z,1003.37
2018-10-19T11:05:55.070Z,1003.38
2018-10-19T11:06:55.129Z,1003.40
2018-10-19T11:07:55.157Z,1003.36
2018-10-19T11:10:55.285Z,1003.25
2018-10-19T11:11:55.329Z,1003.30
2018-10-19T11:12:55.399Z,1003.34
2018-10-19T11:13:55.417Z,1003.35
2018-10-19T11:14:55.458Z,1003.32
2018-10-19T11:15:55.539Z,1003.36
2018-10-19T11:16:55.546Z,1003.42
2018-10-19T11:17:55.593Z,1003.50
2018-10-19T11:18:55.687Z,1003.49
2018-10-19T11:19:55.676Z,1003.43
2018-10-19T11:20:55.719Z,1003.46
2018-10-19T11:21:55.790Z,1003.37
2018-10-19T11:22:55.806Z,1003.46
2018-10-19T11:23:55.900Z,1003.44
2018-10-19T11:24:55.903Z,1003.39
2018-10-19T11:25:55.937Z,1003.37
2018-10-19T11:26:55.979Z,1003.37
2018-10-19T11:27:56.047Z,1003.42
2018-10-19T11:28:56.087Z,1003.33
2018-10-19T11:29:56.112Z,1003.34
2018-10-19T11:30:56.187Z,1003.30
2018-10-19T11:31:56.200Z,1003.33
2018-10-19T11:32:56.243Z,1003.33
2018-10-19T11:33:56.330Z,1003.32
2018-10-19T11:34:56.835Z,1003.31
2018-10-19T11:35:56.376Z,1003.24
2018-10-19T11:36:56.470Z,1003.30
2018-10-19T11:37:56.543Z,1003.24
2018-10-19T11:38:56.545Z,1003.27
2018-10-19T11:39:56.602Z,1003.26
2018-10-19T11:40:56.595Z,1003.30
2018-10-19T11:41:56.640Z,1003.32
2018-10-19T11:42:56.728Z,1003.32
2018-10-19T11:43:56.728Z,1003.37
2018-10-19T11:44:56.797Z,1003.29
2018-10-19T11:45:56.859Z,1003.32
2018-10-19T11:46:57.290Z,1003.25
2018-10-19T11:47:57.844Z,1003.27
2018-10-19T11:48:57.056Z,1003.30
2018-10-19T11:49:56.993Z,1003.18
2018-10-19T11:50:57.035Z,1003.15
2018-10-19T11:51:57.087Z,1003.19
2018-10-19T11:52:57.137Z,1003.22
2018-10-19T11:53:57.170Z,1003.15
2018-10-19T11:54:57.220Z,1003.14
2018-10-19T11:55:57.257Z,1003.13
2018-10-19T11:56:57.349Z,1003.14
2018-10-19T11:57:57.367Z,1003.06
2018-10-19T11:58:57.389Z,1003.04
2018-10-19T11:59:57.434Z,1003.09
2018-10-19T12:00:57.487Z,1003.04
2018-10-19T12:01:57.524Z,1003.10
2018-10-19T12:02:57.568Z,1003.06
2018-10-19T12:03:57.646Z,1003.11
2018-10-19T12:04:57.659Z,1003.12
2018-10-19T12:05:57.703Z,1003.08
2018-10-19T12:06:57.764Z,1003.07
2018-10-19T12:07:57.793Z,1003.06
2018-10-19T12:08:57.838Z,1003.03
2018-10-19T12:09:57.913Z,1003.05
2018-10-19T12:10:57.927Z,1002.98
2018-10-19T12:11:57.976Z,1003.01
2018-10-19T12:12:58.367Z,1003.03
2018-10-19T12:13:58.081Z,1003.01